Deadwood, Oregon
Current Conditions -  °F | °C
As of 9:54 PM on Tuesday 27 Jan 2015 (Local Time) from KEUG Reporting Station
Overcast Overcast  
Wind Chill: 11°   Ceiling: 2600
Heat Index: 11°   Visibility: 10mi
Dew Point:   Wind: 3mph
Humidity: 89%   Direction: 230°SW
Pressure: 30.26"   Gusts: NA
Location:  44.1°N, 123.76°W
Report Text: KEUG 280554Z 23003KT 10SM SCT019 OVC026 11/09 A3026 RMK AO2 SLP248 T01060089 10128 20106 53015
Loading
Personal Weather Stations






























Interactive Weather Map New forecast layout! Learn more

10-Day Weather Forecast

Advertisements
Track Severe Weather on mobile